sensor_id;sensor_type;location;lat;lon;timestamp;pressure;altitude;pressure_sealevel;temperature;humidity
13594;BME280;6449;47.666;9.160;2023-12-20T00:01:04;97269.84;;;5.06;100.00
13594;BME280;6449;47.666;9.160;2023-12-20T00:05:59;97271.53;;;5.07;100.00
13594;BME280;6449;47.666;9.160;2023-12-20T00:10:53;97254.31;;;5.05;100.00
13594;BME280;6449;47.666;9.160;2023-12-20T00:15:46;97261.06;;;5.09;100.00
13594;BME280;6449;47.666;9.160;2023-12-20T00:20:39;97237.28;;;5.16;100.00
13594;BME280;6449;47.666;9.160;2023-12-20T00:25:34;97218.56;;;5.10;100.00
13594;BME280;6449;47.666;9.160;2023-12-20T00:30:28;97220.47;;;5.06;100.00
13594;BME280;6449;47.666;9.160;2023-12-20T00:35:21;97224.28;;;5.16;100.00
13594;BME280;6449;47.666;9.160;2023-12-20T00:40:15;97229.56;;;5.32;100.00
13594;BME280;6449;47.666;9.160;2023-12-20T00:45:10;97232.03;;;5.35;100.00
13594;BME280;6449;47.666;9.160;2023-12-20T00:50:05;97199.47;;;5.28;100.00
13594;BME280;6449;47.666;9.160;2023-12-20T00:55:00;97197.09;;;5.23;100.00
13594;BME280;6449;47.666;9.160;2023-12-20T00:59:55;97190.13;;;5.24;100.00
13594;BME280;6449;47.666;9.160;2023-12-20T01:04:50;97193.66;;;5.23;100.00
13594;BME280;6449;47.666;9.160;2023-12-20T01:09:43;97194.63;;;5.20;100.00
13594;BME280;6449;47.666;9.160;2023-12-20T01:14:36;97193.09;;;5.16;100.00
13594;BME280;6449;47.666;9.160;2023-12-20T01:19:31;97194.88;;;5.16;100.00
13594;BME280;6449;47.666;9.160;2023-12-20T01:24:26;97204.59;;;5.30;100.00
13594;BME280;6449;47.666;9.160;2023-12-20T01:29:20;97200.44;;;5.25;100.00
13594;BME280;6449;47.666;9.160;2023-12-20T01:34:15;97197.09;;;5.41;100.00
13594;BME280;6449;47.666;9.160;2023-12-20T01:39:08;97197.47;;;5.50;100.00
13594;BME280;6449;47.666;9.160;2023-12-20T01:44:17;97213.81;;;5.52;100.00
13594;BME280;6449;47.666;9.160;2023-12-20T01:49:11;97213.28;;;5.63;100.00
13594;BME280;6449;47.666;9.160;2023-12-20T01:54:05;97211.28;;;5.68;100.00
13594;BME280;6449;47.666;9.160;2023-12-20T01:59:00;97208.25;;;5.60;100.00
13594;BME280;6449;47.666;9.160;2023-12-20T02:03:55;97207.16;;;5.64;100.00
13594;BME280;6449;47.666;9.160;2023-12-20T02:08:50;97204.34;;;5.51;100.00
13594;BME280;6449;47.666;9.160;2023-12-20T02:13:43;97213.38;;;5.62;100.00
13594;BME280;6449;47.666;9.160;2023-12-20T02:18:37;97210.22;;;5.72;100.00
13594;BME280;6449;47.666;9.160;2023-12-20T02:23:32;97200.50;;;5.76;100.00
13594;BME280;6449;47.666;9.160;2023-12-20T02:28:26;97185.03;;;5.73;100.00
13594;BME280;6449;47.666;9.160;2023-12-20T02:33:19;97179.41;;;5.65;100.00
13594;BME280;6449;47.666;9.160;2023-12-20T02:38:13;97202.22;;;5.60;100.00
13594;BME280;6449;47.666;9.160;2023-12-20T02:43:08;97192.16;;;5.69;100.00
13594;BME280;6449;47.666;9.160;2023-12-20T02:48:01;97175.06;;;5.65;100.00
13594;BME280;6449;47.666;9.160;2023-12-20T02:52:55;97169.84;;;5.65;100.00
13594;BME280;6449;47.666;9.160;2023-12-20T02:57:49;97179.47;;;5.63;100.00
13594;BME280;6449;47.666;9.160;2023-12-20T03:02:43;97172.44;;;5.65;100.00
13594;BME280;6449;47.666;9.160;2023-12-20T03:07:37;97171.66;;;5.63;100.00
13594;BME280;6449;47.666;9.160;2023-12-20T03:12:31;97184.84;;;5.60;100.00
13594;BME280;6449;47.666;9.160;2023-12-20T03:17:24;97186.53;;;5.61;100.00
13594;BME280;6449;47.666;9.160;2023-12-20T03:22:19;97184.28;;;5.71;100.00
13594;BME280;6449;47.666;9.160;2023-12-20T03:27:12;97186.00;;;5.55;100.00
13594;BME280;6449;47.666;9.160;2023-12-20T03:32:06;97173.53;;;5.61;100.00
13594;BME280;6449;47.666;9.160;2023-12-20T03:37:00;97175.34;;;5.59;100.00
13594;BME280;6449;47.666;9.160;2023-12-20T03:41:55;97175.09;;;5.64;100.00
13594;BME280;6449;47.666;9.160;2023-12-20T03:46:49;97166.47;;;5.63;100.00
13594;BME280;6449;47.666;9.160;2023-12-20T03:51:42;97157.63;;;5.50;100.00
13594;BME280;6449;47.666;9.160;2023-12-20T03:56:35;97163.97;;;5.27;100.00
13594;BME280;6449;47.666;9.160;2023-12-20T04:01:30;97167.50;;;5.26;100.00
13594;BME280;6449;47.666;9.160;2023-12-20T04:06:24;97151.47;;;5.18;100.00
13594;BME280;6449;47.666;9.160;2023-12-20T04:11:17;97149.72;;;5.18;100.00
13594;BME280;6449;47.666;9.160;2023-12-20T04:16:11;97149.31;;;5.26;100.00
13594;BME280;6449;47.666;9.160;2023-12-20T04:21:11;97156.44;;;5.22;100.00
13594;BME280;6449;47.666;9.160;2023-12-20T04:27:06;97152.00;;;5.07;100.00
13594;BME280;6449;47.666;9.160;2023-12-20T04:38:31;97167.28;;;5.13;100.00
13594;BME280;6449;47.666;9.160;2023-12-20T04:43:48;97163.53;;;5.02;100.00
13594;BME280;6449;47.666;9.160;2023-12-20T05:10:52;97171.13;;;5.06;100.00
13594;BME280;6449;47.666;9.160;2023-12-20T05:16:18;97177.78;;;5.12;100.00
13594;BME280;6449;47.666;9.160;2023-12-20T05:21:15;97170.88;;;5.11;100.00
13594;BME280;6449;47.666;9.160;2023-12-20T05:26:11;97182.34;;;5.07;100.00
13594;BME280;6449;47.666;9.160;2023-12-20T05:31:06;97189.13;;;5.09;100.00
13594;BME280;6449;47.666;9.160;2023-12-20T05:36:03;97188.00;;;5.15;100.00
13594;BME280;6449;47.666;9.160;2023-12-20T05:40:58;97188.91;;;5.14;100.00
13594;BME280;6449;47.666;9.160;2023-12-20T05:45:51;97209.16;;;5.07;100.00
13594;BME280;6449;47.666;9.160;2023-12-20T05:50:45;97214.91;;;5.14;100.00
13594;BME280;6449;47.666;9.160;2023-12-20T05:55:38;97198.56;;;5.12;100.00
13594;BME280;6449;47.666;9.160;2023-12-20T06:00:33;97192.75;;;5.07;100.00
13594;BME280;6449;47.666;9.160;2023-12-20T06:05:32;97213.13;;;5.14;100.00
13594;BME280;6449;47.666;9.160;2023-12-20T06:10:26;97199.91;;;5.19;100.00
13594;BME280;6449;47.666;9.160;2023-12-20T06:15:19;97191.13;;;5.21;100.00
13594;BME280;6449;47.666;9.160;2023-12-20T06:20:15;97199.16;;;5.17;100.00
13594;BME280;6449;47.666;9.160;2023-12-20T06:25:09;97212.69;;;5.23;100.00
13594;BME280;6449;47.666;9.160;2023-12-20T06:30:03;97226.91;;;5.34;100.00
13594;BME280;6449;47.666;9.160;2023-12-20T06:34:57;97222.47;;;5.36;100.00
13594;BME280;6449;47.666;9.160;2023-12-20T06:39:52;97234.25;;;5.43;100.00
13594;BME280;6449;47.666;9.160;2023-12-20T06:44:45;97242.91;;;5.43;100.00
13594;BME280;6449;47.666;9.160;2023-12-20T06:49:40;97243.56;;;5.47;100.00
13594;BME280;6449;47.666;9.160;2023-12-20T06:54:33;97240.06;;;5.65;100.00
13594;BME280;6449;47.666;9.160;2023-12-20T06:59:28;97253.06;;;5.65;100.00
13594;BME280;6449;47.666;9.160;2023-12-20T07:04:22;97269.34;;;5.51;100.00
13594;BME280;6449;47.666;9.160;2023-12-20T07:09:15;97257.97;;;5.54;100.00
13594;BME280;6449;47.666;9.160;2023-12-20T07:14:09;97262.56;;;5.66;100.00
13594;BME280;6449;47.666;9.160;2023-12-20T07:19:03;97253.34;;;5.59;100.00
13594;BME280;6449;47.666;9.160;2023-12-20T07:23:57;97253.34;;;5.59;100.00
13594;BME280;6449;47.666;9.160;2023-12-20T07:28:50;97267.84;;;5.65;100.00
13594;BME280;6449;47.666;9.160;2023-12-20T07:33:44;97268.97;;;5.59;100.00
13594;BME280;6449;47.666;9.160;2023-12-20T07:38:39;97264.53;;;5.61;100.00
13594;BME280;6449;47.666;9.160;2023-12-20T07:43:34;97274.03;;;5.62;100.00
13594;BME280;6449;47.666;9.160;2023-12-20T07:48:27;97282.59;;;5.82;100.00
13594;BME280;6449;47.666;9.160;2023-12-20T07:53:20;97293.44;;;5.72;100.00
13594;BME280;6449;47.666;9.160;2023-12-20T07:58:15;97275.25;;;5.72;100.00
13594;BME280;6449;47.666;9.160;2023-12-20T08:03:08;97269.28;;;5.88;100.00
13594;BME280;6449;47.666;9.160;2023-12-20T08:08:02;97284.97;;;5.86;100.00
13594;BME280;6449;47.666;9.160;2023-12-20T08:12:55;97293.53;;;5.88;100.00
13594;BME280;6449;47.666;9.160;2023-12-20T08:17:50;97290.72;;;5.93;100.00
13594;BME280;6449;47.666;9.160;2023-12-20T08:22:44;97282.38;;;6.03;100.00
13594;BME280;6449;47.666;9.160;2023-12-20T08:27:39;97285.50;;;6.10;100.00
13594;BME280;6449;47.666;9.160;2023-12-20T08:32:36;97301.25;;;6.07;100.00
13594;BME280;6449;47.666;9.160;2023-12-20T08:37:31;97311.31;;;5.97;100.00
13594;BME280;6449;47.666;9.160;2023-12-20T08:42:25;97305.25;;;6.14;100.00
13594;BME280;6449;47.666;9.160;2023-12-20T08:47:23;97306.00;;;6.16;100.00
13594;BME280;6449;47.666;9.160;2023-12-20T09:33:02;97307.28;;;6.58;100.00
13594;BME280;6449;47.666;9.160;2023-12-20T09:37:55;97312.94;;;6.66;100.00
13594;BME280;6449;47.666;9.160;2023-12-20T09:43:00;97316.78;;;6.75;100.00
13594;BME280;6449;47.666;9.160;2023-12-20T09:47:58;97334.94;;;6.61;100.00
13594;BME280;6449;47.666;9.160;2023-12-20T09:52:54;97335.13;;;6.73;100.00
13594;BME280;6449;47.666;9.160;2023-12-20T09:57:49;97324.75;;;6.56;100.00
13594;BME280;6449;47.666;9.160;2023-12-20T10:02:50;97327.28;;;6.73;100.00
13594;BME280;6449;47.666;9.160;2023-12-20T10:07:51;97322.75;;;6.61;100.00
13594;BME280;6449;47.666;9.160;2023-12-20T10:13:03;97304.44;;;6.63;100.00
13594;BME280;6449;47.666;9.160;2023-12-20T10:17:58;97291.16;;;6.67;100.00
13594;BME280;6449;47.666;9.160;2023-12-20T10:22:54;97280.22;;;6.76;100.00
13594;BME280;6449;47.666;9.160;2023-12-20T10:28:09;97280.75;;;6.99;100.00
13594;BME280;6449;47.666;9.160;2023-12-20T10:53:35;97253.59;;;7.33;100.00
13594;BME280;6449;47.666;9.160;2023-12-20T10:58:33;97250.00;;;7.35;100.00
13594;BME280;6449;47.666;9.160;2023-12-20T11:03:32;97256.47;;;7.28;100.00
13594;BME280;6449;47.666;9.160;2023-12-20T11:08:39;97261.00;;;7.41;100.00
13594;BME280;6449;47.666;9.160;2023-12-20T11:34:14;97239.44;;;7.53;100.00
13594;BME280;6449;47.666;9.160;2023-12-20T11:39:10;97254.97;;;7.84;100.00
13594;BME280;6449;47.666;9.160;2023-12-20T11:44:05;97252.00;;;7.60;100.00
13594;BME280;6449;47.666;9.160;2023-12-20T11:49:00;97241.84;;;7.56;100.00
13594;BME280;6449;47.666;9.160;2023-12-20T11:53:56;97242.81;;;7.69;100.00
13594;BME280;6449;47.666;9.160;2023-12-20T11:58:50;97233.88;;;7.73;100.00
13594;BME280;6449;47.666;9.160;2023-12-20T12:03:46;97244.22;;;7.75;100.00
13594;BME280;6449;47.666;9.160;2023-12-20T12:08:39;97241.16;;;7.82;100.00
13594;BME280;6449;47.666;9.160;2023-12-20T12:13:36;97245.66;;;8.09;100.00
13594;BME280;6449;47.666;9.160;2023-12-20T12:18:32;97255.38;;;8.07;100.00
13594;BME280;6449;47.666;9.160;2023-12-20T12:23:25;97262.63;;;8.02;100.00
13594;BME280;6449;47.666;9.160;2023-12-20T12:28:19;97263.47;;;8.02;100.00
13594;BME280;6449;47.666;9.160;2023-12-20T12:53:44;97278.56;;;7.53;100.00
13594;BME280;6449;47.666;9.160;2023-12-20T13:34:22;97283.13;;;7.33;100.00
13594;BME280;6449;47.666;9.160;2023-12-20T13:39:15;97293.28;;;7.54;100.00
13594;BME280;6449;47.666;9.160;2023-12-20T13:44:10;97308.53;;;7.46;100.00
13594;BME280;6449;47.666;9.160;2023-12-20T13:49:07;97315.34;;;7.48;100.00
13594;BME280;6449;47.666;9.160;2023-12-20T13:54:03;97313.25;;;7.23;100.00
13594;BME280;6449;47.666;9.160;2023-12-20T13:58:56;97315.47;;;7.15;100.00
13594;BME280;6449;47.666;9.160;2023-12-20T14:03:50;97319.00;;;6.98;100.00
13594;BME280;6449;47.666;9.160;2023-12-20T14:08:43;97326.13;;;6.95;100.00
13594;BME280;6449;47.666;9.160;2023-12-20T14:34:16;97365.94;;;6.65;100.00
13594;BME280;6449;47.666;9.160;2023-12-20T14:39:09;97369.13;;;6.70;100.00
13594;BME280;6449;47.666;9.160;2023-12-20T14:44:04;97378.19;;;6.63;100.00
13594;BME280;6449;47.666;9.160;2023-12-20T14:48:58;97380.53;;;6.52;100.00
13594;BME280;6449;47.666;9.160;2023-12-20T15:04:08;97400.75;;;6.47;100.00
13594;BME280;6449;47.666;9.160;2023-12-20T15:19:59;97396.31;;;6.49;100.00
13594;BME280;6449;47.666;9.160;2023-12-20T15:25:19;97387.28;;;6.56;100.00
13594;BME280;6449;47.666;9.160;2023-12-20T15:35:17;97382.56;;;6.29;100.00
13594;BME280;6449;47.666;9.160;2023-12-20T15:40:12;97385.94;;;6.14;100.00
13594;BME280;6449;47.666;9.160;2023-12-20T15:45:07;97387.66;;;5.96;100.00
13594;BME280;6449;47.666;9.160;2023-12-20T15:50:01;97391.91;;;5.80;100.00
13594;BME280;6449;47.666;9.160;2023-12-20T15:54:56;97371.41;;;5.74;100.00
13594;BME280;6449;47.666;9.160;2023-12-20T15:59:49;97372.44;;;5.52;100.00
13594;BME280;6449;47.666;9.160;2023-12-20T16:04:43;97381.88;;;5.36;100.00
13594;BME280;6449;47.666;9.160;2023-12-20T16:09:36;97393.09;;;5.38;100.00
13594;BME280;6449;47.666;9.160;2023-12-20T16:14:31;97403.22;;;5.43;100.00
13594;BME280;6449;47.666;9.160;2023-12-20T16:19:25;97393.75;;;5.42;100.00
13594;BME280;6449;47.666;9.160;2023-12-20T16:24:18;97395.38;;;5.25;100.00
13594;BME280;6449;47.666;9.160;2023-12-20T16:29:12;97406.84;;;5.21;100.00
13594;BME280;6449;47.666;9.160;2023-12-20T16:34:07;97413.66;;;5.24;100.00
13594;BME280;6449;47.666;9.160;2023-12-20T16:39:01;97400.81;;;5.02;100.00
13594;BME280;6449;47.666;9.160;2023-12-20T16:43:54;97391.56;;;4.96;100.00
13594;BME280;6449;47.666;9.160;2023-12-20T16:48:48;97416.38;;;4.83;100.00
13594;BME280;6449;47.666;9.160;2023-12-20T16:53:44;97421.72;;;4.80;100.00
13594;BME280;6449;47.666;9.160;2023-12-20T16:58:37;97410.69;;;4.94;100.00
13594;BME280;6449;47.666;9.160;2023-12-20T17:03:31;97402.78;;;5.35;100.00
13594;BME280;6449;47.666;9.160;2023-12-20T17:20:35;97392.22;;;5.00;100.00
13594;BME280;6449;47.666;9.160;2023-12-20T17:25:55;97426.03;;;4.61;100.00
13594;BME280;6449;47.666;9.160;2023-12-20T17:31:32;97439.28;;;4.55;100.00
13594;BME280;6449;47.666;9.160;2023-12-20T17:36:30;97427.59;;;4.44;100.00
13594;BME280;6449;47.666;9.160;2023-12-20T17:42:26;97432.91;;;4.41;100.00
13594;BME280;6449;47.666;9.160;2023-12-20T17:53:30;97447.88;;;4.14;100.00
13594;BME280;6449;47.666;9.160;2023-12-20T17:58:23;97461.53;;;4.40;100.00
13594;BME280;6449;47.666;9.160;2023-12-20T18:03:17;97475.94;;;4.27;100.00
13594;BME280;6449;47.666;9.160;2023-12-20T18:08:10;97491.78;;;4.41;100.00
13594;BME280;6449;47.666;9.160;2023-12-20T18:13:05;97502.03;;;4.44;100.00
13594;BME280;6449;47.666;9.160;2023-12-20T18:17:59;97492.69;;;4.40;100.00
13594;BME280;6449;47.666;9.160;2023-12-20T18:22:52;97485.47;;;4.46;100.00
13594;BME280;6449;47.666;9.160;2023-12-20T18:27:47;97479.97;;;4.54;100.00
13594;BME280;6449;47.666;9.160;2023-12-20T18:32:42;97484.63;;;4.66;100.00
13594;BME280;6449;47.666;9.160;2023-12-20T18:37:36;97490.22;;;4.57;100.00
13594;BME280;6449;47.666;9.160;2023-12-20T18:42:31;97481.94;;;4.49;100.00
13594;BME280;6449;47.666;9.160;2023-12-20T18:47:25;97467.75;;;4.56;100.00
13594;BME280;6449;47.666;9.160;2023-12-20T18:52:20;97477.19;;;4.38;100.00
13594;BME280;6449;47.666;9.160;2023-12-20T18:57:15;97488.81;;;4.08;100.00
13594;BME280;6449;47.666;9.160;2023-12-20T19:02:09;97496.44;;;3.90;100.00
13594;BME280;6449;47.666;9.160;2023-12-20T19:07:04;97492.50;;;4.02;100.00
13594;BME280;6449;47.666;9.160;2023-12-20T19:12:00;97491.47;;;4.06;100.00
13594;BME280;6449;47.666;9.160;2023-12-20T19:16:53;97474.75;;;4.13;100.00
13594;BME280;6449;47.666;9.160;2023-12-20T19:21:51;97474.50;;;4.19;100.00
13594;BME280;6449;47.666;9.160;2023-12-20T19:26:44;97461.16;;;4.29;100.00
13594;BME280;6449;47.666;9.160;2023-12-20T19:31:39;97437.66;;;4.52;100.00
13594;BME280;6449;47.666;9.160;2023-12-20T19:36:32;97448.09;;;4.51;100.00
13594;BME280;6449;47.666;9.160;2023-12-20T19:41:28;97458.41;;;4.72;100.00
13594;BME280;6449;47.666;9.160;2023-12-20T19:46:22;97453.88;;;4.57;100.00
13594;BME280;6449;47.666;9.160;2023-12-20T19:51:18;97451.28;;;4.57;100.00
13594;BME280;6449;47.666;9.160;2023-12-20T19:56:13;97436.78;;;4.72;100.00
13594;BME280;6449;47.666;9.160;2023-12-20T20:01:06;97427.38;;;4.69;100.00
13594;BME280;6449;47.666;9.160;2023-12-20T20:06:00;97412.66;;;4.70;100.00
13594;BME280;6449;47.666;9.160;2023-12-20T20:10:55;97412.84;;;4.65;100.00
13594;BME280;6449;47.666;9.160;2023-12-20T20:15:48;97400.34;;;4.73;100.00
13594;BME280;6449;47.666;9.160;2023-12-20T20:20:42;97400.66;;;4.86;100.00
13594;BME280;6449;47.666;9.160;2023-12-20T20:25:35;97410.13;;;4.87;100.00
13594;BME280;6449;47.666;9.160;2023-12-20T20:30:30;97377.06;;;5.10;100.00
13594;BME280;6449;47.666;9.160;2023-12-20T20:35:23;97374.34;;;5.13;100.00
13594;BME280;6449;47.666;9.160;2023-12-20T20:40:17;97363.94;;;4.94;100.00
13594;BME280;6449;47.666;9.160;2023-12-20T20:45:12;97356.44;;;5.07;100.00
13594;BME280;6449;47.666;9.160;2023-12-20T20:50:09;97361.63;;;4.88;100.00
13594;BME280;6449;47.666;9.160;2023-12-20T20:55:04;97359.88;;;4.88;100.00
13594;BME280;6449;47.666;9.160;2023-12-20T21:00:00;97336.00;;;4.99;100.00
13594;BME280;6449;47.666;9.160;2023-12-20T21:04:56;97348.63;;;4.88;100.00
13594;BME280;6449;47.666;9.160;2023-12-20T21:09:51;97363.53;;;5.03;100.00
13594;BME280;6449;47.666;9.160;2023-12-20T21:14:54;97368.22;;;4.95;100.00
13594;BME280;6449;47.666;9.160;2023-12-20T21:19:50;97364.22;;;4.88;100.00
13594;BME280;6449;47.666;9.160;2023-12-20T21:24:44;97361.81;;;4.83;100.00
13594;BME280;6449;47.666;9.160;2023-12-20T21:34:38;97340.50;;;4.95;100.00
13594;BME280;6449;47.666;9.160;2023-12-20T21:39:34;97353.25;;;5.00;100.00
13594;BME280;6449;47.666;9.160;2023-12-20T21:44:29;97358.53;;;4.98;100.00
13594;BME280;6449;47.666;9.160;2023-12-20T21:49:26;97351.16;;;5.08;100.00
13594;BME280;6449;47.666;9.160;2023-12-20T21:54:25;97354.47;;;4.93;100.00
13594;BME280;6449;47.666;9.160;2023-12-20T21:59:19;97327.56;;;4.94;100.00
13594;BME280;6449;47.666;9.160;2023-12-20T22:04:19;97331.91;;;4.93;100.00
13594;BME280;6449;47.666;9.160;2023-12-20T22:09:13;97339.44;;;4.99;100.00
13594;BME280;6449;47.666;9.160;2023-12-20T22:14:10;97342.75;;;5.03;100.00
13594;BME280;6449;47.666;9.160;2023-12-20T22:19:03;97347.72;;;5.08;100.00
13594;BME280;6449;47.666;9.160;2023-12-20T22:23:57;97321.19;;;5.01;100.00
13594;BME280;6449;47.666;9.160;2023-12-20T22:28:51;97331.00;;;4.94;100.00
13594;BME280;6449;47.666;9.160;2023-12-20T22:33:45;97320.94;;;5.06;100.00
13594;BME280;6449;47.666;9.160;2023-12-20T22:38:39;97310.44;;;5.09;100.00
13594;BME280;6449;47.666;9.160;2023-12-20T22:43:33;97310.44;;;5.09;100.00
13594;BME280;6449;47.666;9.160;2023-12-20T22:48:26;97296.28;;;5.14;100.00
13594;BME280;6449;47.666;9.160;2023-12-20T22:53:21;97286.81;;;5.13;100.00
13594;BME280;6449;47.666;9.160;2023-12-20T22:58:15;97282.34;;;5.17;100.00
13594;BME280;6449;47.666;9.160;2023-12-20T23:03:08;97264.81;;;5.20;100.00
13594;BME280;6449;47.666;9.160;2023-12-20T23:08:02;97256.41;;;5.15;100.00
13594;BME280;6449;47.666;9.160;2023-12-20T23:12:58;97259.91;;;5.14;100.00
13594;BME280;6449;47.666;9.160;2023-12-20T23:17:52;97251.91;;;5.19;100.00
13594;BME280;6449;47.666;9.160;2023-12-20T23:22:48;97240.47;;;5.04;100.00
13594;BME280;6449;47.666;9.160;2023-12-20T23:27:42;97242.81;;;5.28;100.00
13594;BME280;6449;47.666;9.160;2023-12-20T23:32:40;97247.47;;;5.21;100.00
13594;BME280;6449;47.666;9.160;2023-12-20T23:37:33;97243.69;;;5.09;100.00
13594;BME280;6449;47.666;9.160;2023-12-20T23:42:27;97241.63;;;5.16;100.00
13594;BME280;6449;47.666;9.160;2023-12-20T23:47:20;97247.00;;;5.13;100.00
13594;BME280;6449;47.666;9.160;2023-12-20T23:52:15;97222.78;;;5.12;100.00
13594;BME280;6449;47.666;9.160;2023-12-20T23:57:09;97207.09;;;5.14;100.00
